Terminal Aerodrome Forecast
Issued by NWS

Home | Current Version | Previous Version | Text Only | Print | Product List | Glossary On
Versions: 1 2 3 4 5 6 7 8 9 10 11 12
000
FTUS46 KSTO 210520
TAFSMF
TAF
KSMF 210520Z 2106/2206 16011KT P6SM SKC
     FM211600 15005KT P6SM SKC
     FM212100 23006KT P6SM SKC
     FM220000 19008KT P6SM SKC=

USA.gov is the U.S. government's official web portal to all federal, state and local government web resources and services.